createdAt,value
2023-03-13T00:01:19.531Z,0.30
2023-03-13T00:03:48.341Z,0.50
2023-03-13T00:06:17.587Z,0.53
2023-03-13T00:08:46.325Z,0.50
2023-03-13T00:11:17.828Z,0.43
2023-03-13T00:13:46.466Z,0.47
2023-03-13T00:16:16.847Z,0.47
2023-03-13T00:18:49.313Z,0.67
2023-03-13T00:21:20.312Z,0.50
2023-03-13T00:23:49.656Z,0.33
2023-03-13T00:26:21.602Z,0.43
2023-03-13T00:28:51.046Z,0.30
2023-03-13T00:31:21.583Z,0.50
2023-03-13T00:33:53.724Z,0.50
2023-03-13T00:36:23.953Z,0.33
2023-03-13T00:38:54.690Z,0.60
2023-03-13T00:41:26.026Z,0.27
2023-03-13T00:43:54.947Z,0.40
2023-03-13T00:46:24.934Z,0.37
2023-03-13T00:48:53.632Z,0.57
2023-03-13T00:51:23.925Z,0.70
2023-03-13T00:53:52.543Z,0.40
2023-03-13T00:56:22.056Z,0.40
2023-03-13T00:58:52.666Z,0.50
2023-03-13T01:01:23.256Z,0.40
2023-03-13T01:03:54.173Z,0.60
2023-03-13T01:06:25.508Z,0.77
2023-03-13T01:08:55.722Z,0.77
2023-03-13T01:11:28.983Z,0.70
2023-03-13T01:14:00.721Z,0.67
2023-03-13T01:16:31.186Z,0.80
2023-03-13T01:19:02.931Z,0.93
2023-03-13T01:21:32.070Z,0.50
2023-03-13T01:24:00.733Z,0.60
2023-03-13T01:26:29.620Z,0.60
2023-03-13T01:28:59.548Z,0.50
2023-03-13T01:31:30.600Z,0.50
2023-03-13T01:34:02.587Z,0.50
2023-03-13T01:36:31.583Z,0.60
2023-03-13T01:39:01.915Z,0.50
2023-03-13T01:41:32.571Z,0.40
2023-03-13T01:44:02.819Z,0.40
2023-03-13T01:46:34.973Z,0.40
2023-03-13T01:49:14.122Z,0.40
2023-03-13T01:52:05.566Z,0.50
2023-03-13T01:54:41.606Z,0.50
2023-03-13T01:57:15.310Z,0.50
2023-03-13T01:59:49.400Z,0.70
2023-03-13T02:02:18.156Z,0.63
2023-03-13T02:04:50.194Z,0.50
2023-03-13T02:07:24.207Z,0.60
2023-03-13T02:09:55.924Z,0.50
2023-03-13T02:12:30.598Z,0.50
2023-03-13T02:15:03.549Z,0.40
2023-03-13T02:17:33.827Z,0.50
2023-03-13T02:20:05.285Z,0.57
2023-03-13T02:22:41.813Z,0.50
2023-03-13T02:25:21.886Z,0.43
2023-03-13T02:27:54.168Z,0.60
2023-03-13T02:30:23.662Z,0.50
2023-03-13T02:32:52.510Z,0.47
2023-03-13T02:35:24.614Z,0.33
2023-03-13T02:37:58.481Z,0.40
2023-03-13T02:40:31.373Z,0.30
2023-03-13T02:43:04.239Z,0.50
2023-03-13T02:45:32.757Z,0.67
2023-03-13T02:48:01.290Z,0.40
2023-03-13T02:50:30.293Z,0.40
2023-03-13T02:53:02.892Z,0.60
2023-03-13T02:55:38.243Z,0.60
2023-03-13T02:58:08.974Z,0.40
2023-03-13T03:00:39.110Z,0.30
2023-03-13T03:03:07.481Z,0.40
2023-03-13T03:05:36.044Z,0.40
2023-03-13T03:08:04.520Z,0.30
2023-03-13T03:10:33.096Z,0.40
2023-03-13T03:13:01.614Z,0.37
2023-03-13T03:15:32.857Z,0.50
2023-03-13T03:18:01.346Z,0.40
2023-03-13T03:20:29.871Z,0.30
2023-03-13T03:22:58.363Z,0.20
2023-03-13T03:25:28.190Z,0.40
2023-03-13T03:27:56.916Z,0.40
2023-03-13T03:30:25.344Z,0.30
2023-03-13T03:32:55.425Z,0.30
2023-03-13T03:35:24.774Z,0.30
2023-03-13T03:37:53.360Z,0.30
2023-03-13T03:40:23.274Z,0.50
2023-03-13T03:42:51.817Z,0.47
2023-03-13T03:45:20.259Z,0.47
2023-03-13T03:47:48.671Z,0.37
2023-03-13T03:50:19.047Z,0.47
2023-03-13T03:52:56.412Z,0.50
2023-03-13T03:55:26.724Z,0.40
2023-03-13T03:57:55.342Z,0.40
2023-03-13T04:00:45.998Z,0.40
2023-03-13T04:03:16.995Z,0.27
2023-03-13T04:05:47.011Z,0.30
2023-03-13T04:08:15.745Z,0.40
2023-03-13T04:10:44.319Z,0.30
2023-03-13T04:13:13.335Z,0.47
2023-03-13T04:15:42.113Z,0.50
2023-03-13T04:18:13.252Z,0.33
2023-03-13T04:20:42.090Z,0.40
2023-03-13T04:23:12.908Z,0.47
2023-03-13T04:25:41.437Z,0.37
2023-03-13T04:28:12.967Z,0.40
2023-03-13T04:30:45.891Z,0.33
2023-03-13T04:33:37.052Z,0.40
2023-03-13T04:36:21.270Z,0.47
2023-03-13T04:39:14.507Z,0.43
2023-03-13T04:42:14.474Z,0.50
2023-03-13T04:45:06.462Z,0.50
2023-03-13T04:47:53.858Z,0.43
2023-03-13T04:50:40.825Z,0.40
2023-03-13T04:53:22.513Z,0.50
2023-03-13T04:56:06.915Z,0.30
2023-03-13T04:59:05.284Z,0.50
2023-03-13T05:01:58.515Z,0.50
2023-03-13T05:04:47.170Z,0.60
2023-03-13T05:07:47.346Z,0.50
2023-03-13T05:10:34.155Z,0.40
2023-03-13T05:13:36.172Z,0.50
2023-03-13T05:16:37.017Z,0.40
2023-03-13T05:19:15.556Z,0.40
2023-03-13T05:22:02.389Z,0.47
2023-03-13T05:24:51.283Z,0.40
2023-03-13T05:27:33.469Z,0.30
2023-03-13T05:30:35.795Z,0.30
2023-03-13T05:33:30.292Z,0.67
2023-03-13T05:36:17.341Z,0.40
2023-03-13T05:39:03.013Z,0.40
2023-03-13T05:41:45.003Z,0.40
2023-03-13T05:44:29.729Z,0.50
2023-03-13T05:47:19.503Z,0.40
2023-03-13T05:50:07.916Z,0.40
2023-03-13T05:52:51.059Z,0.50
2023-03-13T05:55:57.791Z,0.67
2023-03-13T05:58:41.749Z,1.10
2023-03-13T06:01:36.039Z,0.73
2023-03-13T06:04:18.816Z,0.50
2023-03-13T06:06:48.119Z,0.50
2023-03-13T06:09:17.898Z,0.50
2023-03-13T06:11:47.000Z,0.40
2023-03-13T06:14:15.457Z,0.50
2023-03-13T06:17:10.285Z,0.60
2023-03-13T06:19:40.345Z,0.60
2023-03-13T06:22:08.899Z,0.50
2023-03-13T06:24:37.879Z,0.50
2023-03-13T06:27:12.746Z,0.40
2023-03-13T06:29:41.366Z,0.60
2023-03-13T06:32:10.170Z,0.50
2023-03-13T06:34:40.057Z,0.40
2023-03-13T06:37:08.503Z,0.30
2023-03-13T06:39:36.908Z,0.40
2023-03-13T06:42:05.829Z,0.40
2023-03-13T06:44:34.281Z,0.33
2023-03-13T06:47:02.832Z,0.50
2023-03-13T06:49:31.340Z,0.50
2023-03-13T06:52:01.329Z,0.50
2023-03-13T06:54:29.856Z,0.60
2023-03-13T06:56:58.154Z,0.60
2023-03-13T06:59:26.794Z,0.60
2023-03-13T07:01:55.115Z,0.50
2023-03-13T07:04:23.603Z,0.67
2023-03-13T07:06:53.760Z,0.60
2023-03-13T07:09:23.841Z,0.43
2023-03-13T07:12:00.005Z,0.43
2023-03-13T07:14:28.498Z,0.70
2023-03-13T07:16:58.309Z,0.50
2023-03-13T07:19:27.603Z,1.33
2023-03-13T07:21:57.132Z,1.07
2023-03-13T07:24:27.245Z,0.90
2023-03-13T07:27:06.207Z,1.60
2023-03-13T07:29:36.136Z,1.27
2023-03-13T07:32:04.814Z,1.37
2023-03-13T07:34:33.422Z,1.20
2023-03-13T07:37:01.723Z,1.43
2023-03-13T07:39:31.636Z,1.57
2023-03-13T07:42:00.085Z,1.40
2023-03-13T07:44:28.493Z,1.20
2023-03-13T07:47:01.036Z,1.10
2023-03-13T07:49:29.579Z,1.03
2023-03-13T07:51:57.987Z,1.40
2023-03-13T07:54:26.634Z,1.30
2023-03-13T07:56:56.487Z,1.10
2023-03-13T07:59:24.948Z,0.97
2023-03-13T08:01:53.454Z,1.43
2023-03-13T08:04:22.012Z,1.87
2023-03-13T08:06:51.791Z,1.53
2023-03-13T08:09:20.456Z,1.33
2023-03-13T08:11:49.216Z,1.23
2023-03-13T08:14:19.382Z,1.20
2023-03-13T08:16:49.023Z,1.27
2023-03-13T08:19:17.519Z,1.40
2023-03-13T08:21:46.958Z,1.80
2023-03-13T08:24:16.365Z,1.77
2023-03-13T08:26:44.852Z,2.00
2023-03-13T08:29:14.615Z,1.60
2023-03-13T08:31:49.644Z,1.57
2023-03-13T08:34:20.051Z,1.60
2023-03-13T08:36:49.494Z,1.23
2023-03-13T08:39:19.766Z,1.10
2023-03-13T08:41:49.938Z,1.77
2023-03-13T08:44:21.606Z,1.37
2023-03-13T08:46:52.574Z,1.83
2023-03-13T08:49:21.140Z,1.57
2023-03-13T08:51:50.924Z,1.03
2023-03-13T08:54:19.371Z,1.23
2023-03-13T08:56:48.068Z,1.60
2023-03-13T08:59:16.754Z,1.57
2023-03-13T09:01:45.164Z,1.40
2023-03-13T09:04:16.765Z,1.30
2023-03-13T09:06:45.701Z,1.60
2023-03-13T09:09:15.493Z,1.80
2023-03-13T09:11:45.064Z,1.43
2023-03-13T09:14:17.916Z,1.53
2023-03-13T09:16:48.533Z,1.57
2023-03-13T09:19:20.268Z,1.57
2023-03-13T09:21:49.550Z,1.77
2023-03-13T09:24:18.301Z,1.50
2023-03-13T09:27:00.434Z,1.83
2023-03-13T09:29:30.302Z,1.60
2023-03-13T09:31:58.670Z,1.43
2023-03-13T09:34:28.481Z,1.70
2023-03-13T09:36:56.921Z,1.10
2023-03-13T09:39:25.423Z,1.50
2023-03-13T09:41:59.483Z,1.63
2023-03-13T09:44:31.192Z,1.53
2023-03-13T09:47:07.462Z,1.40
2023-03-13T09:49:41.430Z,2.23
2023-03-13T09:52:17.490Z,2.50
2023-03-13T09:54:50.675Z,2.73
2023-03-13T09:57:28.280Z,2.23
2023-03-13T10:00:04.300Z,1.70
2023-03-13T10:02:37.935Z,1.90
2023-03-13T10:05:17.573Z,1.63
2023-03-13T10:07:46.149Z,1.70
2023-03-13T10:10:18.175Z,1.60
2023-03-13T10:12:49.177Z,1.30
2023-03-13T10:15:40.136Z,1.20
2023-03-13T10:18:17.170Z,1.30
2023-03-13T10:20:49.097Z,1.23
2023-03-13T10:23:22.527Z,1.30
2023-03-13T10:25:50.946Z,1.13
2023-03-13T10:28:21.954Z,1.20
2023-03-13T10:30:55.436Z,1.40
2023-03-13T10:33:26.768Z,1.20
2023-03-13T10:36:09.059Z,1.10
2023-03-13T10:38:50.151Z,1.00
2023-03-13T10:41:29.172Z,1.00
2023-03-13T10:44:01.675Z,1.30
2023-03-13T10:46:31.953Z,1.47
2023-03-13T10:49:04.284Z,2.30
2023-03-13T10:51:43.452Z,1.67
2023-03-13T10:54:23.981Z,2.03
2023-03-13T10:56:53.296Z,2.60
2023-03-13T10:59:24.954Z,2.20
2023-03-13T11:01:54.664Z,3.87
2023-03-13T11:04:32.269Z,4.73
2023-03-13T11:07:09.177Z,6.50
2023-03-13T11:09:38.161Z,5.63
2023-03-13T11:12:21.849Z,4.33
2023-03-13T11:14:57.688Z,5.57
2023-03-13T11:17:37.082Z,4.20
2023-03-13T11:20:26.537Z,4.63
2023-03-13T11:23:11.399Z,4.13
2023-03-13T11:25:48.066Z,4.23
2023-03-13T11:28:27.975Z,4.70
2023-03-13T11:31:05.362Z,4.53
2023-03-13T11:33:45.089Z,4.57
2023-03-13T11:36:25.785Z,5.03
2023-03-13T11:39:03.822Z,4.80
2023-03-13T11:41:47.335Z,4.20
2023-03-13T11:44:29.454Z,3.90
2023-03-13T11:47:15.272Z,3.13
2023-03-13T11:49:59.225Z,2.80
2023-03-13T11:52:42.066Z,3.57
2023-03-13T11:55:39.012Z,3.53
2023-03-13T11:58:35.328Z,3.90
2023-03-13T12:01:07.744Z,4.10
2023-03-13T12:03:44.477Z,3.50
2023-03-13T12:06:28.420Z,3.57
2023-03-13T12:09:04.439Z,3.33
2023-03-13T12:11:44.482Z,2.63
2023-03-13T12:14:17.517Z,2.30
2023-03-13T12:16:50.717Z,2.60
2023-03-13T12:19:25.395Z,2.47
2023-03-13T12:21:56.917Z,2.60
2023-03-13T12:24:32.624Z,2.23
2023-03-13T12:27:10.546Z,2.07
2023-03-13T12:29:49.670Z,2.43
2023-03-13T12:32:26.096Z,2.07
2023-03-13T12:35:02.064Z,1.63
2023-03-13T12:37:40.260Z,2.70
2023-03-13T12:40:18.014Z,1.93
2023-03-13T12:42:56.359Z,2.93
2023-03-13T12:45:29.753Z,2.30
2023-03-13T12:48:21.552Z,1.57
2023-03-13T12:51:09.578Z,2.20
2023-03-13T12:54:06.687Z,1.90
2023-03-13T12:56:46.541Z,1.50
2023-03-13T12:59:21.908Z,1.90
2023-03-13T13:01:54.668Z,1.90
2023-03-13T13:04:26.797Z,1.87
2023-03-13T13:06:59.847Z,2.23
2023-03-13T13:09:30.986Z,2.33
2023-03-13T13:12:03.539Z,2.10
2023-03-13T13:15:05.770Z,1.63
2023-03-13T13:18:09.324Z,2.73
2023-03-13T13:20:46.079Z,2.80
2023-03-13T13:23:37.765Z,2.50
2023-03-13T13:26:48.976Z,1.93
2023-03-13T13:29:58.599Z,2.53
2023-03-13T13:32:43.812Z,3.23
2023-03-13T13:35:33.060Z,2.90
2023-03-13T13:38:41.205Z,2.97
2023-03-13T13:41:34.569Z,3.27
2023-03-13T13:44:30.527Z,2.03
2023-03-13T13:47:02.221Z,2.50
2023-03-13T13:49:37.664Z,3.03
2023-03-13T13:52:46.785Z,3.43
2023-03-13T13:55:47.192Z,3.20
2023-03-13T13:58:24.016Z,3.13
2023-03-13T14:00:55.912Z,3.27
2023-03-13T14:03:26.334Z,4.53
2023-03-13T14:05:58.256Z,3.10
2023-03-13T14:08:31.229Z,3.27
2023-03-13T14:11:25.960Z,3.20
2023-03-13T14:14:17.466Z,3.30
2023-03-13T14:16:47.695Z,3.70
2023-03-13T14:19:25.298Z,3.87
2023-03-13T14:22:00.961Z,4.47
2023-03-13T14:24:29.519Z,3.97
2023-03-13T14:26:59.547Z,3.70
2023-03-13T14:29:28.212Z,3.43
2023-03-13T14:31:58.621Z,3.57
2023-03-13T14:34:30.988Z,3.73
2023-03-13T14:37:17.620Z,3.93
2023-03-13T14:39:49.087Z,3.07
2023-03-13T14:42:20.689Z,3.97
2023-03-13T14:44:50.635Z,3.87
2023-03-13T14:47:25.542Z,3.70
2023-03-13T14:49:59.374Z,2.93
2023-03-13T14:52:29.516Z,3.13
2023-03-13T14:55:02.304Z,4.13
2023-03-13T14:57:33.187Z,3.67
2023-03-13T15:00:40.425Z,3.63
2023-03-13T15:03:22.024Z,3.23
2023-03-13T15:05:52.330Z,3.97
2023-03-13T15:08:24.781Z,3.70
2023-03-13T15:10:53.376Z,3.13
2023-03-13T15:13:29.429Z,4.50
2023-03-13T15:15:57.981Z,3.63
2023-03-13T15:18:28.439Z,3.43
2023-03-13T15:20:59.242Z,3.67
2023-03-13T15:23:28.389Z,3.40
2023-03-13T15:25:56.739Z,3.33
2023-03-13T15:28:26.616Z,4.47
2023-03-13T15:30:55.119Z,3.87
2023-03-13T15:33:25.599Z,3.47
2023-03-13T15:35:54.551Z,4.07
2023-03-13T15:38:25.522Z,4.27
2023-03-13T15:40:55.280Z,3.53
2023-03-13T15:43:26.625Z,3.87
2023-03-13T15:45:55.497Z,4.50
2023-03-13T15:48:27.861Z,3.63
2023-03-13T15:50:59.178Z,3.20
2023-03-13T15:53:29.652Z,3.80
2023-03-13T15:56:00.338Z,3.33
2023-03-13T15:58:31.676Z,4.33
2023-03-13T16:01:00.677Z,3.43
2023-03-13T16:03:30.309Z,4.33
2023-03-13T16:06:44.035Z,3.93
2023-03-13T16:09:17.469Z,3.63
2023-03-13T16:11:46.470Z,4.60
2023-03-13T16:14:16.228Z,4.00
2023-03-13T16:16:53.254Z,3.87
2023-03-13T16:19:33.109Z,4.17
2023-03-13T16:22:04.627Z,4.53
2023-03-13T16:24:32.994Z,3.53
2023-03-13T16:27:01.732Z,3.97
2023-03-13T16:29:31.611Z,3.90
2023-03-13T16:32:00.010Z,4.27
2023-03-13T16:34:28.610Z,4.13
2023-03-13T16:36:57.045Z,3.20
2023-03-13T16:39:25.504Z,3.67
2023-03-13T16:41:53.984Z,4.90
2023-03-13T16:44:22.343Z,3.33
2023-03-13T16:47:04.767Z,3.93
2023-03-13T16:49:34.204Z,4.30
2023-03-13T16:52:02.657Z,4.17
2023-03-13T16:54:31.036Z,3.70
2023-03-13T16:57:01.141Z,4.77
2023-03-13T16:59:30.921Z,4.17
2023-03-13T17:02:00.715Z,3.63
2023-03-13T17:04:29.206Z,3.97
2023-03-13T17:06:58.197Z,4.70
2023-03-13T17:09:26.887Z,3.97
2023-03-13T17:11:55.328Z,4.13
2023-03-13T17:14:23.743Z,4.97
2023-03-13T17:16:57.830Z,4.17
2023-03-13T17:19:27.672Z,4.47
2023-03-13T17:21:58.344Z,3.70
2023-03-13T17:24:27.770Z,3.93
2023-03-13T17:26:56.251Z,4.70
2023-03-13T17:29:24.946Z,3.90
2023-03-13T17:31:53.381Z,4.00
2023-03-13T17:34:24.238Z,4.47
2023-03-13T17:37:00.020Z,3.50
2023-03-13T17:39:29.895Z,4.47
2023-03-13T17:42:01.241Z,3.80
2023-03-13T17:44:31.116Z,4.37
2023-03-13T17:47:36.334Z,4.07
2023-03-13T17:51:01.845Z,5.00
2023-03-13T17:53:45.858Z,4.47
2023-03-13T17:56:56.473Z,4.50
2023-03-13T17:59:42.107Z,4.17
2023-03-13T18:02:50.518Z,4.80
2023-03-13T18:05:42.443Z,4.70
2023-03-13T18:08:13.074Z,5.13
2023-03-13T18:10:42.844Z,4.93
2023-03-13T18:13:12.276Z,4.30
2023-03-13T18:15:41.737Z,4.50
2023-03-13T18:18:16.436Z,4.60
2023-03-13T18:20:44.916Z,3.97
2023-03-13T18:23:13.357Z,4.93
2023-03-13T18:25:43.175Z,4.27
2023-03-13T18:28:13.460Z,4.57
2023-03-13T18:30:41.937Z,4.27
2023-03-13T18:34:15.453Z,4.73
2023-03-13T18:36:54.722Z,4.50
2023-03-13T18:39:23.452Z,5.20
2023-03-13T18:41:53.377Z,6.03
2023-03-13T18:44:26.976Z,5.53
2023-03-13T18:46:57.502Z,6.33
2023-03-13T18:49:27.171Z,5.30
2023-03-13T18:51:55.672Z,4.40
2023-03-13T18:54:24.087Z,4.47
2023-03-13T18:56:54.020Z,5.37
2023-03-13T18:59:32.523Z,5.40
2023-03-13T19:02:01.021Z,5.03
2023-03-13T19:05:05.979Z,4.50
2023-03-13T19:07:34.982Z,5.20
2023-03-13T19:10:09.427Z,5.20
2023-03-13T19:12:39.411Z,4.90
2023-03-13T19:15:36.346Z,4.77
2023-03-13T19:18:25.695Z,5.73
2023-03-13T19:20:56.106Z,5.50
2023-03-13T19:23:24.950Z,4.60
2023-03-13T19:25:53.568Z,5.00
2023-03-13T19:28:23.456Z,4.23
2023-03-13T19:30:51.833Z,4.80
2023-03-13T19:33:20.233Z,4.70
2023-03-13T19:35:48.684Z,4.40
2023-03-13T19:38:17.280Z,5.50
2023-03-13T19:40:46.797Z,4.80
2023-03-13T19:43:15.144Z,4.47
2023-03-13T19:45:44.936Z,4.57
2023-03-13T19:48:13.367Z,4.73
2023-03-13T19:50:41.771Z,4.57
2023-03-13T19:53:10.232Z,4.90
2023-03-13T19:55:38.623Z,4.60
2023-03-13T19:58:07.772Z,5.23
2023-03-13T20:00:37.399Z,4.53
2023-03-13T20:03:07.178Z,4.77
2023-03-13T20:05:35.594Z,5.50
2023-03-13T20:08:04.019Z,5.07
2023-03-13T20:10:32.499Z,4.90
2023-03-13T20:13:00.974Z,4.90
2023-03-13T20:15:29.486Z,5.20
2023-03-13T20:17:58.076Z,5.70
2023-03-13T20:20:27.915Z,5.03
2023-03-13T20:22:56.883Z,5.80
2023-03-13T20:25:25.419Z,7.40
2023-03-13T20:27:53.734Z,5.80
2023-03-13T20:30:22.239Z,5.57
2023-03-13T20:32:59.276Z,4.53
2023-03-13T20:35:30.572Z,6.03
2023-03-13T20:38:00.972Z,5.57
2023-03-13T20:40:32.028Z,4.70
2023-03-13T20:43:01.048Z,4.47
2023-03-13T20:45:30.905Z,4.77
2023-03-13T20:47:59.824Z,5.43
2023-03-13T20:50:28.253Z,4.23
2023-03-13T20:52:58.243Z,4.77
2023-03-13T20:55:26.770Z,4.50
2023-03-13T20:57:55.157Z,5.07
2023-03-13T21:00:26.312Z,5.60
2023-03-13T21:02:55.183Z,5.47
2023-03-13T21:05:25.650Z,3.13
2023-03-13T21:07:55.511Z,3.97
2023-03-13T21:10:25.669Z,4.67
2023-03-13T21:12:54.221Z,4.87
2023-03-13T21:15:22.673Z,3.60
2023-03-13T21:17:51.123Z,4.77
2023-03-13T21:20:19.984Z,6.73
2023-03-13T21:22:48.562Z,5.10
2023-03-13T21:25:19.318Z,4.47
2023-03-13T21:27:49.323Z,7.23
2023-03-13T21:30:20.526Z,7.00
2023-03-13T21:32:49.617Z,4.13
2023-03-13T21:35:18.105Z,3.70
2023-03-13T21:37:46.465Z,4.17
2023-03-13T21:40:20.066Z,4.80
2023-03-13T21:42:51.908Z,5.43
2023-03-13T21:45:20.306Z,3.33
2023-03-13T21:47:48.773Z,4.17
2023-03-13T21:50:17.252Z,3.77
2023-03-13T21:52:45.735Z,3.27
2023-03-13T21:55:15.341Z,2.90
2023-03-13T21:57:43.767Z,2.97
2023-03-13T22:00:15.975Z,4.30
2023-03-13T22:02:44.640Z,3.60
2023-03-13T22:05:13.257Z,2.17
2023-03-13T22:07:41.779Z,2.07
2023-03-13T22:10:11.271Z,1.87
2023-03-13T22:12:39.765Z,0.70
2023-03-13T22:15:09.503Z,0.40
2023-03-13T22:17:39.285Z,0.20
2023-03-13T22:20:10.519Z,0.10
2023-03-13T22:22:39.027Z,0.30
2023-03-13T22:25:08.121Z,0.20
2023-03-13T22:27:36.746Z,0.20
2023-03-13T22:30:06.324Z,0.20
2023-03-13T22:32:34.830Z,0.30
2023-03-13T22:35:04.894Z,0.50
2023-03-13T22:37:33.324Z,0.20
2023-03-13T22:40:01.771Z,0.37
2023-03-13T22:42:30.386Z,0.13
2023-03-13T22:44:58.745Z,0.20
2023-03-13T22:47:27.193Z,0.10
2023-03-13T22:49:56.094Z,0.10
2023-03-13T22:52:30.788Z,0.10
2023-03-13T22:54:59.402Z,0.10
2023-03-13T22:57:29.349Z,0.20
2023-03-13T22:59:59.269Z,0.10
2023-03-13T23:02:28.290Z,0.10
2023-03-13T23:04:58.692Z,0.00
2023-03-13T23:07:29.793Z,0.10
2023-03-13T23:09:59.233Z,0.00
2023-03-13T23:12:30.939Z,0.10
2023-03-13T23:15:00.214Z,0.20
2023-03-13T23:17:31.362Z,0.10
2023-03-13T23:20:02.413Z,0.10
2023-03-13T23:22:33.070Z,0.30
2023-03-13T23:25:02.341Z,0.50
2023-03-13T23:27:31.928Z,0.40
2023-03-13T23:30:04.324Z,0.47
2023-03-13T23:32:36.494Z,0.20
2023-03-13T23:35:05.331Z,0.30
2023-03-13T23:37:35.307Z,0.20
2023-03-13T23:40:05.453Z,0.20
2023-03-13T23:42:33.820Z,0.20
2023-03-13T23:45:02.688Z,0.20
2023-03-13T23:47:31.071Z,0.10
2023-03-13T23:49:59.454Z,0.20
2023-03-13T23:52:28.183Z,0.10
2023-03-13T23:54:58.601Z,0.20
2023-03-13T23:57:27.603Z,0.20
2023-03-13T23:59:56.196Z,0.30
